sensor_id;sensor_type;location;lat;lon;timestamp;temperature;humidity
10441;DHT22;5268;49.346;9.522;2023-01-01T04:24:45;6.60;99.90
10441;DHT22;5268;49.346;9.522;2023-01-01T04:29:47;6.50;99.90
10441;DHT22;5268;49.346;9.522;2023-01-01T04:34:49;6.40;99.90
10441;DHT22;5268;49.346;9.522;2023-01-01T04:39:52;6.40;99.90
10441;DHT22;5268;49.346;9.522;2023-01-01T04:44:54;6.30;99.90
10441;DHT22;5268;49.346;9.522;2023-01-01T04:49:56;6.30;99.90
10441;DHT22;5268;49.346;9.522;2023-01-01T04:55:00;6.20;99.90
10441;DHT22;5268;49.346;9.522;2023-01-01T05:00:02;6.20;99.90
10441;DHT22;5268;49.346;9.522;2023-01-01T05:05:05;6.20;99.90
10441;DHT22;5268;49.346;9.522;2023-01-01T05:10:08;6.20;99.90
10441;DHT22;5268;49.346;9.522;2023-01-01T05:15:10;6.10;99.90
10441;DHT22;5268;49.346;9.522;2023-01-01T05:20:13;6.10;99.90
10441;DHT22;5268;49.346;9.522;2023-01-01T05:25:16;6.00;99.90
10441;DHT22;5268;49.346;9.522;2023-01-01T05:30:18;6.00;99.90
10441;DHT22;5268;49.346;9.522;2023-01-01T05:35:20;5.90;99.90
10441;DHT22;5268;49.346;9.522;2023-01-01T05:40:23;5.90;99.90
10441;DHT22;5268;49.346;9.522;2023-01-01T05:45:25;5.90;99.90
10441;DHT22;5268;49.346;9.522;2023-01-01T05:50:35;5.90;99.90
10441;DHT22;5268;49.346;9.522;2023-01-01T05:55:37;5.80;99.90
10441;DHT22;5268;49.346;9.522;2023-01-01T06:00:39;5.80;99.90
10441;DHT22;5268;49.346;9.522;2023-01-01T06:05:43;5.70;99.90
10441;DHT22;5268;49.346;9.522;2023-01-01T06:10:45;5.70;99.90
10441;DHT22;5268;49.346;9.522;2023-01-01T06:15:52;5.70;99.90
10441;DHT22;5268;49.346;9.522;2023-01-01T06:21:04;5.70;99.90
10441;DHT22;5268;49.346;9.522;2023-01-01T06:26:07;5.60;99.90
10441;DHT22;5268;49.346;9.522;2023-01-01T06:31:12;5.60;99.90
10441;DHT22;5268;49.346;9.522;2023-01-01T06:36:17;5.60;99.90
10441;DHT22;5268;49.346;9.522;2023-01-01T06:41:21;5.60;99.90
10441;DHT22;5268;49.346;9.522;2023-01-01T06:46:25;5.50;99.90
10441;DHT22;5268;49.346;9.522;2023-01-01T06:51:30;5.50;99.90
10441;DHT22;5268;49.346;9.522;2023-01-01T06:56:32;5.50;99.90
10441;DHT22;5268;49.346;9.522;2023-01-01T07:01:36;5.50;99.90
10441;DHT22;5268;49.346;9.522;2023-01-01T07:06:41;5.50;99.90
10441;DHT22;5268;49.346;9.522;2023-01-01T07:11:43;5.50;99.90
10441;DHT22;5268;49.346;9.522;2023-01-01T07:16:45;5.40;99.90
10441;DHT22;5268;49.346;9.522;2023-01-01T07:21:52;5.40;99.90
10441;DHT22;5268;49.346;9.522;2023-01-01T07:26:55;5.40;99.90
10441;DHT22;5268;49.346;9.522;2023-01-01T07:31:57;5.40;99.90
10441;DHT22;5268;49.346;9.522;2023-01-01T07:37:01;5.50;99.90
10441;DHT22;5268;49.346;9.522;2023-01-01T07:42:03;5.50;99.90
10441;DHT22;5268;49.346;9.522;2023-01-01T07:47:12;5.50;99.90
10441;DHT22;5268;49.346;9.522;2023-01-01T07:52:18;5.60;99.90
10441;DHT22;5268;49.346;9.522;2023-01-01T07:57:21;5.70;99.90
10441;DHT22;5268;49.346;9.522;2023-01-01T08:02:24;5.80;99.90
10441;DHT22;5268;49.346;9.522;2023-01-01T08:07:28;6.00;99.90
10441;DHT22;5268;49.346;9.522;2023-01-01T08:12:30;6.20;99.90
10441;DHT22;5268;49.346;9.522;2023-01-01T08:17:32;6.40;99.90
10441;DHT22;5268;49.346;9.522;2023-01-01T08:22:38;6.40;99.90
10441;DHT22;5268;49.346;9.522;2023-01-01T08:27:49;6.50;99.90
10441;DHT22;5268;49.346;9.522;2023-01-01T08:32:51;6.50;99.90
10441;DHT22;5268;49.346;9.522;2023-01-01T08:37:55;6.60;99.90
10441;DHT22;5268;49.346;9.522;2023-01-01T08:42:57;6.80;99.90
10441;DHT22;5268;49.346;9.522;2023-01-01T08:48:01;7.40;99.90
10441;DHT22;5268;49.346;9.522;2023-01-01T08:53:05;8.10;99.90
10441;DHT22;5268;49.346;9.522;2023-01-01T08:58:07;9.00;99.90
10441;DHT22;5268;49.346;9.522;2023-01-01T09:03:09;10.10;99.90
10441;DHT22;5268;49.346;9.522;2023-01-01T09:08:12;11.20;99.90
10441;DHT22;5268;49.346;9.522;2023-01-01T09:13:17;12.10;99.90
10441;DHT22;5268;49.346;9.522;2023-01-01T09:18:19;12.70;99.90
10441;DHT22;5268;49.346;9.522;2023-01-01T09:23:22;13.10;99.90
10441;DHT22;5268;49.346;9.522;2023-01-01T09:28:24;13.50;99.90
10441;DHT22;5268;49.346;9.522;2023-01-01T09:33:29;14.00;99.90
10441;DHT22;5268;49.346;9.522;2023-01-01T09:38:32;14.50;99.90
10441;DHT22;5268;49.346;9.522;2023-01-01T09:43:42;14.90;99.90
10441;DHT22;5268;49.346;9.522;2023-01-01T09:48:51;15.30;99.90
10441;DHT22;5268;49.346;9.522;2023-01-01T09:54:03;15.30;99.90
10441;DHT22;5268;49.346;9.522;2023-01-01T09:59:07;15.20;99.90
10441;DHT22;5268;49.346;9.522;2023-01-01T10:04:22;15.10;99.90
10441;DHT22;5268;49.346;9.522;2023-01-01T10:09:33;14.90;99.90
10441;DHT22;5268;49.346;9.522;2023-01-01T10:14:43;14.50;99.90
10441;DHT22;5268;49.346;9.522;2023-01-01T10:19:49;14.10;99.90
10441;DHT22;5268;49.346;9.522;2023-01-01T10:24:57;14.00;99.90
10441;DHT22;5268;49.346;9.522;2023-01-01T10:30:07;14.10;99.90
10441;DHT22;5268;49.346;9.522;2023-01-01T10:35:15;14.30;99.90
10441;DHT22;5268;49.346;9.522;2023-01-01T10:40:24;14.50;99.90
10441;DHT22;5268;49.346;9.522;2023-01-01T10:45:31;14.60;99.90
10441;DHT22;5268;49.346;9.522;2023-01-01T10:50:41;14.70;99.90
10441;DHT22;5268;49.346;9.522;2023-01-01T10:55:49;14.80;99.90
10441;DHT22;5268;49.346;9.522;2023-01-01T11:00:57;14.90;99.90
10441;DHT22;5268;49.346;9.522;2023-01-01T11:06:01;15.10;99.90
10441;DHT22;5268;49.346;9.522;2023-01-01T11:11:05;15.10;99.90
10441;DHT22;5268;49.346;9.522;2023-01-01T11:16:09;15.10;99.90
10441;DHT22;5268;49.346;9.522;2023-01-01T11:21:18;15.10;99.90
10441;DHT22;5268;49.346;9.522;2023-01-01T11:26:22;15.20;99.90
10441;DHT22;5268;49.346;9.522;2023-01-01T11:31:29;15.30;99.90
10441;DHT22;5268;49.346;9.522;2023-01-01T11:36:34;15.40;99.90
10441;DHT22;5268;49.346;9.522;2023-01-01T11:41:45;15.50;99.90
10441;DHT22;5268;49.346;9.522;2023-01-01T11:46:48;15.60;99.90
10441;DHT22;5268;49.346;9.522;2023-01-01T11:51:50;15.80;99.90
10441;DHT22;5268;49.346;9.522;2023-01-01T11:57:00;16.00;99.90
10441;DHT22;5268;49.346;9.522;2023-01-01T12:02:04;16.10;99.90
10441;DHT22;5268;49.346;9.522;2023-01-01T12:07:21;16.10;99.90
10441;DHT22;5268;49.346;9.522;2023-01-01T12:12:29;16.10;99.90
10441;DHT22;5268;49.346;9.522;2023-01-01T12:17:36;16.00;99.90
10441;DHT22;5268;49.346;9.522;2023-01-01T12:22:39;15.90;99.90
10441;DHT22;5268;49.346;9.522;2023-01-01T12:27:56;15.80;99.90
10441;DHT22;5268;49.346;9.522;2023-01-01T12:33:12;15.70;99.90
10441;DHT22;5268;49.346;9.522;2023-01-01T12:38:29;15.60;99.90
10441;DHT22;5268;49.346;9.522;2023-01-01T12:43:42;15.60;99.90
10441;DHT22;5268;49.346;9.522;2023-01-01T12:49:03;15.70;99.90
10441;DHT22;5268;49.346;9.522;2023-01-01T12:54:35;15.70;99.90
10441;DHT22;5268;49.346;9.522;2023-01-01T12:59:46;15.70;99.90
10441;DHT22;5268;49.346;9.522;2023-01-01T13:04:52;15.80;99.90
10441;DHT22;5268;49.346;9.522;2023-01-01T13:09:58;15.90;99.90
10441;DHT22;5268;49.346;9.522;2023-01-01T13:20:45;15.90;99.90
10441;DHT22;5268;49.346;9.522;2023-01-01T13:25:47;15.90;99.90
10441;DHT22;5268;49.346;9.522;2023-01-01T13:30:52;15.90;99.90
10441;DHT22;5268;49.346;9.522;2023-01-01T13:36:29;16.00;99.90
10441;DHT22;5268;49.346;9.522;2023-01-01T13:41:32;16.00;99.90
10441;DHT22;5268;49.346;9.522;2023-01-01T13:46:53;16.10;99.90
10441;DHT22;5268;49.346;9.522;2023-01-01T13:58:12;16.00;99.90
10441;DHT22;5268;49.346;9.522;2023-01-01T14:03:17;16.00;99.90
10441;DHT22;5268;49.346;9.522;2023-01-01T14:08:27;16.00;99.90
10441;DHT22;5268;49.346;9.522;2023-01-01T14:13:38;16.00;99.90
10441;DHT22;5268;49.346;9.522;2023-01-01T14:18:44;15.90;99.90
10441;DHT22;5268;49.346;9.522;2023-01-01T14:23:49;15.90;99.90
10441;DHT22;5268;49.346;9.522;2023-01-01T14:28:52;15.90;99.90
10441;DHT22;5268;49.346;9.522;2023-01-01T14:33:56;15.80;99.90
10441;DHT22;5268;49.346;9.522;2023-01-01T14:38:59;15.70;99.90
10441;DHT22;5268;49.346;9.522;2023-01-01T14:44:03;15.60;99.90
10441;DHT22;5268;49.346;9.522;2023-01-01T14:49:09;15.50;99.90
10441;DHT22;5268;49.346;9.522;2023-01-01T14:54:16;15.40;99.90
10441;DHT22;5268;49.346;9.522;2023-01-01T14:59:23;15.40;99.90
10441;DHT22;5268;49.346;9.522;2023-01-01T15:04:27;15.30;99.90
10441;DHT22;5268;49.346;9.522;2023-01-01T15:09:30;15.30;99.90
10441;DHT22;5268;49.346;9.522;2023-01-01T15:14:36;15.20;99.90
10441;DHT22;5268;49.346;9.522;2023-01-01T15:19:41;15.10;99.90
10441;DHT22;5268;49.346;9.522;2023-01-01T15:24:44;15.00;99.90
10441;DHT22;5268;49.346;9.522;2023-01-01T15:29:46;14.90;99.90
10441;DHT22;5268;49.346;9.522;2023-01-01T15:34:51;14.90;99.90
10441;DHT22;5268;49.346;9.522;2023-01-01T15:39:56;14.80;99.90
10441;DHT22;5268;49.346;9.522;2023-01-01T15:45:25;14.70;99.90
10441;DHT22;5268;49.346;9.522;2023-01-01T15:50:32;14.60;99.90
10441;DHT22;5268;49.346;9.522;2023-01-01T15:55:40;14.50;99.90
10441;DHT22;5268;49.346;9.522;2023-01-01T16:00:53;14.40;99.90
10441;DHT22;5268;49.346;9.522;2023-01-01T16:05:57;14.30;99.90
10441;DHT22;5268;49.346;9.522;2023-01-01T16:10:59;14.10;99.90
10441;DHT22;5268;49.346;9.522;2023-01-01T16:16:02;14.00;99.90
10441;DHT22;5268;49.346;9.522;2023-01-01T16:21:06;13.90;99.90
10441;DHT22;5268;49.346;9.522;2023-01-01T16:26:08;13.80;99.90
10441;DHT22;5268;49.346;9.522;2023-01-01T16:31:14;13.70;99.90
10441;DHT22;5268;49.346;9.522;2023-01-01T16:36:19;13.50;99.90
10441;DHT22;5268;49.346;9.522;2023-01-01T16:41:21;13.30;99.90
10441;DHT22;5268;49.346;9.522;2023-01-01T16:46:24;13.20;99.90
10441;DHT22;5268;49.346;9.522;2023-01-01T16:51:30;13.00;99.90
10441;DHT22;5268;49.346;9.522;2023-01-01T16:56:33;12.90;99.90
10441;DHT22;5268;49.346;9.522;2023-01-01T17:01:35;12.70;99.90
10441;DHT22;5268;49.346;9.522;2023-01-01T17:06:38;12.60;99.90
10441;DHT22;5268;49.346;9.522;2023-01-01T17:11:40;12.50;99.90
10441;DHT22;5268;49.346;9.522;2023-01-01T17:16:42;12.30;99.90
10441;DHT22;5268;49.346;9.522;2023-01-01T17:21:47;12.20;99.90
10441;DHT22;5268;49.346;9.522;2023-01-01T17:26:50;12.10;99.90
10441;DHT22;5268;49.346;9.522;2023-01-01T17:31:52;11.90;99.90
10441;DHT22;5268;49.346;9.522;2023-01-01T17:36:56;11.80;99.90
10441;DHT22;5268;49.346;9.522;2023-01-01T17:41:58;11.70;99.90
10441;DHT22;5268;49.346;9.522;2023-01-01T17:47:01;11.60;99.90
10441;DHT22;5268;49.346;9.522;2023-01-01T17:52:04;11.50;99.90
10441;DHT22;5268;49.346;9.522;2023-01-01T17:57:06;11.40;99.90
10441;DHT22;5268;49.346;9.522;2023-01-01T18:02:11;11.30;99.90
10441;DHT22;5268;49.346;9.522;2023-01-01T18:07:14;11.20;99.90
10441;DHT22;5268;49.346;9.522;2023-01-01T18:12:16;11.10;99.90
10441;DHT22;5268;49.346;9.522;2023-01-01T18:17:18;10.90;99.90
10441;DHT22;5268;49.346;9.522;2023-01-01T18:22:22;10.80;99.90
10441;DHT22;5268;49.346;9.522;2023-01-01T18:27:24;10.70;99.90
10441;DHT22;5268;49.346;9.522;2023-01-01T18:32:26;10.60;99.90
10441;DHT22;5268;49.346;9.522;2023-01-01T18:37:29;10.50;99.90
10441;DHT22;5268;49.346;9.522;2023-01-01T18:42:38;10.40;99.90
10441;DHT22;5268;49.346;9.522;2023-01-01T18:47:44;10.30;99.90
10441;DHT22;5268;49.346;9.522;2023-01-01T18:52:48;10.20;99.90
10441;DHT22;5268;49.346;9.522;2023-01-01T18:57:56;10.10;99.90
10441;DHT22;5268;49.346;9.522;2023-01-01T19:03:00;10.00;99.90
10441;DHT22;5268;49.346;9.522;2023-01-01T19:08:12;9.90;99.90
10441;DHT22;5268;49.346;9.522;2023-01-01T19:13:17;9.80;99.90
10441;DHT22;5268;49.346;9.522;2023-01-01T19:18:21;9.70;99.90
10441;DHT22;5268;49.346;9.522;2023-01-01T19:23:26;9.50;99.90
10441;DHT22;5268;49.346;9.522;2023-01-01T19:28:35;9.40;99.90
10441;DHT22;5268;49.346;9.522;2023-01-01T19:33:38;9.40;99.90
10441;DHT22;5268;49.346;9.522;2023-01-01T19:38:41;9.30;99.90
10441;DHT22;5268;49.346;9.522;2023-01-01T19:43:44;9.20;99.90
10441;DHT22;5268;49.346;9.522;2023-01-01T19:48:46;9.10;99.90
10441;DHT22;5268;49.346;9.522;2023-01-01T19:53:52;9.00;99.90
10441;DHT22;5268;49.346;9.522;2023-01-01T19:58:57;9.00;99.90
10441;DHT22;5268;49.346;9.522;2023-01-01T20:03:59;9.00;99.90
10441;DHT22;5268;49.346;9.522;2023-01-01T20:09:03;9.00;99.90
10441;DHT22;5268;49.346;9.522;2023-01-01T20:14:05;9.00;99.90
10441;DHT22;5268;49.346;9.522;2023-01-01T20:19:07;8.80;99.90
10441;DHT22;5268;49.346;9.522;2023-01-01T20:24:10;8.80;99.90
10441;DHT22;5268;49.346;9.522;2023-01-01T20:29:12;8.70;99.90
10441;DHT22;5268;49.346;9.522;2023-01-01T20:34:21;8.80;99.90
10441;DHT22;5268;49.346;9.522;2023-01-01T20:39:25;8.80;99.90
10441;DHT22;5268;49.346;9.522;2023-01-01T20:44:27;8.80;99.90
10441;DHT22;5268;49.346;9.522;2023-01-01T20:49:29;8.80;99.90
10441;DHT22;5268;49.346;9.522;2023-01-01T20:54:32;8.70;99.90
10441;DHT22;5268;49.346;9.522;2023-01-01T20:59:34;8.60;99.90
10441;DHT22;5268;49.346;9.522;2023-01-01T21:04:37;8.50;99.90
10441;DHT22;5268;49.346;9.522;2023-01-01T21:09:41;8.50;99.90
10441;DHT22;5268;49.346;9.522;2023-01-01T21:14:43;8.40;99.90
10441;DHT22;5268;49.346;9.522;2023-01-01T21:19:45;8.30;99.90
10441;DHT22;5268;49.346;9.522;2023-01-01T21:24:49;8.30;99.90
10441;DHT22;5268;49.346;9.522;2023-01-01T21:29:53;8.10;99.90
10441;DHT22;5268;49.346;9.522;2023-01-01T21:34:56;8.10;99.90
10441;DHT22;5268;49.346;9.522;2023-01-01T21:45:38;8.00;99.90
10441;DHT22;5268;49.346;9.522;2023-01-01T21:50:42;8.00;99.90
10441;DHT22;5268;49.346;9.522;2023-01-01T21:55:48;7.90;99.90
10441;DHT22;5268;49.346;9.522;2023-01-01T22:00:54;7.80;99.90
10441;DHT22;5268;49.346;9.522;2023-01-01T22:05:56;7.80;99.90
10441;DHT22;5268;49.346;9.522;2023-01-01T22:11:00;7.70;99.90
10441;DHT22;5268;49.346;9.522;2023-01-01T22:16:02;7.70;99.90
10441;DHT22;5268;49.346;9.522;2023-01-01T22:21:10;7.60;99.90
10441;DHT22;5268;49.346;9.522;2023-01-01T22:26:17;7.60;99.90
